createdAt,value
2023-05-19T00:01:02.335Z,18.60
2023-05-19T00:03:35.791Z,18.60
2023-05-19T00:06:11.133Z,18.50
2023-05-19T00:08:44.118Z,18.50
2023-05-19T00:11:17.748Z,18.50
2023-05-19T00:13:52.573Z,18.50
2023-05-19T00:16:25.586Z,18.50
2023-05-19T00:18:59.013Z,18.50
2023-05-19T00:21:32.094Z,18.50
2023-05-19T00:24:04.889Z,18.50
2023-05-19T00:26:37.967Z,18.50
2023-05-19T00:29:10.825Z,18.60
2023-05-19T00:31:43.783Z,18.60
2023-05-19T00:34:16.982Z,18.60
2023-05-19T00:36:54.371Z,18.70
2023-05-19T00:39:27.133Z,18.80
2023-05-19T00:45:04.458Z,18.80
2023-05-19T00:47:38.388Z,18.80
2023-05-19T00:50:11.782Z,18.80
2023-05-19T00:52:44.933Z,18.80
2023-05-19T00:55:18.780Z,18.80
2023-05-19T00:57:52.814Z,18.80
2023-05-19T01:00:29.089Z,18.70
2023-05-19T01:03:02.419Z,18.70
2023-05-19T01:05:35.417Z,18.70
2023-05-19T01:08:19.886Z,18.70
2023-05-19T01:10:52.150Z,18.60
2023-05-19T01:13:25.007Z,18.60
2023-05-19T01:16:11.627Z,18.60
2023-05-19T01:18:56.662Z,18.50
2023-05-19T01:21:32.307Z,18.50
2023-05-19T01:24:07.457Z,18.50
2023-05-19T01:26:48.207Z,18.40
2023-05-19T01:29:35.110Z,18.40
2023-05-19T01:32:09.942Z,18.40
2023-05-19T01:34:45.185Z,18.40
2023-05-19T01:37:18.343Z,18.40
2023-05-19T01:39:51.810Z,18.30
2023-05-19T01:42:25.720Z,18.30
2023-05-19T01:44:59.865Z,18.30
2023-05-19T01:47:32.663Z,18.30
2023-05-19T01:50:06.368Z,18.30
2023-05-19T01:52:39.203Z,18.30
2023-05-19T01:55:13.088Z,18.30
2023-05-19T01:58:10.398Z,18.20
2023-05-19T02:01:03.219Z,18.20
2023-05-19T02:03:51.245Z,18.20
2023-05-19T02:06:47.873Z,18.20
2023-05-19T02:09:38.851Z,18.10
2023-05-19T02:12:16.622Z,18.10
2023-05-19T02:15:00.625Z,18.10
2023-05-19T02:17:35.355Z,18.10
2023-05-19T02:20:09.203Z,18.10
2023-05-19T02:22:42.249Z,18.20
2023-05-19T02:25:15.899Z,18.20
2023-05-19T02:27:48.686Z,18.20
2023-05-19T02:30:21.614Z,18.20
2023-05-19T02:32:58.062Z,18.20
2023-05-19T02:35:30.857Z,18.20
2023-05-19T02:38:04.050Z,18.20
2023-05-19T02:40:36.826Z,18.20
2023-05-19T02:43:10.720Z,18.20
2023-05-19T02:45:43.684Z,18.20
2023-05-19T02:48:16.671Z,18.20
2023-05-19T02:50:49.551Z,18.20
2023-05-19T02:53:22.319Z,18.10
2023-05-19T02:55:55.082Z,18.10
2023-05-19T02:58:28.442Z,18.10
2023-05-19T03:01:01.497Z,18.00
2023-05-19T03:03:34.908Z,18.00
2023-05-19T03:06:09.425Z,18.00
2023-05-19T03:08:42.615Z,18.00
2023-05-19T03:11:15.610Z,18.00
2023-05-19T03:13:48.690Z,18.00
2023-05-19T03:16:21.894Z,18.00
2023-05-19T03:18:55.042Z,18.00
2023-05-19T03:21:28.111Z,17.90
2023-05-19T03:24:01.232Z,17.90
2023-05-19T03:26:34.525Z,17.90
2023-05-19T03:29:07.617Z,17.90
2023-05-19T03:31:40.357Z,17.80
2023-05-19T03:34:13.399Z,17.80
2023-05-19T03:36:46.980Z,17.80
2023-05-19T03:39:19.924Z,17.80
2023-05-19T03:41:53.161Z,17.80
2023-05-19T03:44:26.312Z,17.80
2023-05-19T03:46:59.254Z,17.80
2023-05-19T03:49:32.640Z,17.80
2023-05-19T03:52:05.811Z,17.80
2023-05-19T03:54:38.707Z,17.80
2023-05-19T03:57:13.096Z,17.80
2023-05-19T03:59:46.784Z,17.80
2023-05-19T04:02:20.259Z,17.80
2023-05-19T04:04:53.388Z,17.80
2023-05-19T04:07:26.302Z,17.70
2023-05-19T04:10:03.445Z,17.70
2023-05-19T04:12:36.374Z,17.70
2023-05-19T04:15:09.788Z,17.70
2023-05-19T04:17:42.984Z,17.70
2023-05-19T04:20:16.675Z,17.70
2023-05-19T04:22:49.602Z,17.70
2023-05-19T04:25:22.529Z,17.70
2023-05-19T04:27:55.287Z,17.70
2023-05-19T04:30:28.525Z,17.60
2023-05-19T04:33:02.764Z,17.60
2023-05-19T04:35:35.683Z,17.60
2023-05-19T04:38:08.699Z,17.60
2023-05-19T04:40:43.045Z,17.60
2023-05-19T04:43:15.795Z,17.50
2023-05-19T04:45:53.370Z,17.50
2023-05-19T04:48:26.296Z,17.50
2023-05-19T04:50:59.736Z,17.50
2023-05-19T04:53:33.524Z,17.50
2023-05-19T04:56:06.889Z,17.50
2023-05-19T04:58:41.893Z,17.50
2023-05-19T05:01:17.663Z,17.40
2023-05-19T05:03:54.331Z,17.40
2023-05-19T05:06:27.526Z,17.40
2023-05-19T05:09:00.371Z,17.40
2023-05-19T05:14:28.918Z,17.30
2023-05-19T05:17:06.472Z,17.30
2023-05-19T05:19:39.792Z,17.30
2023-05-19T05:22:12.907Z,17.30
2023-05-19T05:24:46.208Z,17.20
2023-05-19T05:27:19.093Z,17.20
2023-05-19T05:29:52.035Z,17.20
2023-05-19T05:32:25.589Z,17.20
2023-05-19T05:34:58.880Z,17.20
2023-05-19T05:37:32.121Z,17.10
2023-05-19T05:40:05.732Z,17.10
2023-05-19T05:42:38.915Z,17.10
2023-05-19T05:45:12.536Z,17.10
2023-05-19T05:47:45.683Z,17.10
2023-05-19T05:50:19.473Z,17.10
2023-05-19T05:52:54.434Z,17.10
2023-05-19T05:55:27.815Z,17.10
2023-05-19T05:58:01.320Z,17.10
2023-05-19T06:00:35.567Z,17.10
2023-05-19T06:03:09.142Z,17.00
2023-05-19T06:05:42.246Z,17.00
2023-05-19T06:08:15.162Z,17.00
2023-05-19T06:10:48.676Z,17.00
2023-05-19T06:13:22.704Z,16.90
2023-05-19T06:15:56.237Z,16.90
2023-05-19T06:18:29.349Z,16.90
2023-05-19T06:21:02.462Z,16.90
2023-05-19T06:23:37.833Z,16.90
2023-05-19T06:26:10.806Z,16.80
2023-05-19T06:28:43.532Z,16.80
2023-05-19T06:31:16.515Z,16.80
2023-05-19T06:33:49.398Z,16.80
2023-05-19T06:36:22.456Z,16.80
2023-05-19T06:38:55.373Z,16.80
2023-05-19T06:41:28.423Z,16.80
2023-05-19T06:44:01.368Z,16.80
2023-05-19T06:46:34.664Z,16.70
2023-05-19T06:49:10.168Z,16.70
2023-05-19T06:51:43.442Z,16.60
2023-05-19T06:54:17.908Z,16.60
2023-05-19T06:56:50.872Z,16.60
2023-05-19T06:59:24.599Z,16.60
2023-05-19T07:01:57.658Z,16.50
2023-05-19T07:04:30.869Z,16.50
2023-05-19T07:07:03.985Z,16.50
2023-05-19T07:09:37.079Z,16.50
2023-05-19T07:12:09.928Z,16.50
2023-05-19T07:14:43.088Z,16.40
2023-05-19T07:17:21.734Z,16.40
2023-05-19T07:19:54.677Z,16.40
2023-05-19T07:22:27.619Z,16.40
2023-05-19T07:25:00.563Z,16.40
2023-05-19T07:27:33.519Z,16.40
2023-05-19T07:30:07.029Z,16.40
2023-05-19T07:32:39.986Z,16.40
2023-05-19T07:35:13.018Z,16.40
2023-05-19T07:37:45.908Z,16.40
2023-05-19T07:40:19.052Z,16.40
2023-05-19T07:42:52.889Z,16.40
2023-05-19T07:45:26.033Z,16.40
2023-05-19T07:47:59.224Z,16.40
2023-05-19T07:50:32.356Z,16.40
2023-05-19T07:53:05.280Z,16.40
2023-05-19T07:55:37.850Z,16.40
2023-05-19T07:58:10.666Z,16.30
2023-05-19T08:00:47.793Z,16.30
2023-05-19T08:03:21.337Z,16.30
2023-05-19T08:06:01.129Z,16.30
2023-05-19T08:08:35.145Z,16.30
2023-05-19T08:11:08.582Z,16.30
2023-05-19T08:13:41.636Z,16.30
2023-05-19T08:16:15.238Z,16.20
2023-05-19T08:18:48.224Z,16.20
2023-05-19T08:21:21.237Z,16.20
2023-05-19T08:23:54.168Z,16.20
2023-05-19T08:26:27.841Z,16.20
2023-05-19T08:29:00.980Z,16.20
2023-05-19T08:31:34.022Z,16.20
2023-05-19T08:34:06.847Z,16.20
2023-05-19T08:36:39.756Z,16.20
2023-05-19T08:39:12.614Z,16.20
2023-05-19T08:41:45.633Z,16.20
2023-05-19T08:44:19.128Z,16.20
2023-05-19T08:46:57.790Z,16.20
2023-05-19T08:49:31.497Z,16.20
2023-05-19T08:52:15.732Z,16.20
2023-05-19T08:54:56.649Z,16.20
2023-05-19T08:57:30.661Z,16.20
2023-05-19T09:00:04.194Z,16.20
2023-05-19T09:02:46.412Z,16.20
2023-05-19T09:05:13.116Z,16.20
2023-05-19T09:07:46.732Z,16.20
2023-05-19T09:10:19.681Z,16.20
2023-05-19T09:12:53.424Z,16.20
2023-05-19T09:15:28.182Z,16.20
2023-05-19T09:18:15.154Z,16.20
2023-05-19T09:20:48.966Z,16.20
2023-05-19T09:23:23.046Z,16.20
2023-05-19T09:25:56.947Z,16.20
2023-05-19T09:28:34.978Z,16.20
2023-05-19T09:31:12.418Z,16.20
2023-05-19T09:33:46.382Z,16.20
2023-05-19T09:36:19.504Z,16.20
2023-05-19T09:38:52.588Z,16.20
2023-05-19T09:41:25.630Z,16.20
2023-05-19T09:44:02.037Z,16.20
2023-05-19T09:46:36.356Z,16.20
2023-05-19T09:49:16.214Z,16.20
2023-05-19T09:51:49.880Z,16.20
2023-05-19T09:54:23.523Z,16.20
2023-05-19T09:57:03.358Z,16.20
2023-05-19T09:59:36.671Z,16.20
2023-05-19T10:02:11.237Z,16.20
2023-05-19T10:04:45.165Z,16.20
2023-05-19T10:07:19.853Z,16.20
2023-05-19T10:09:55.040Z,16.20
2023-05-19T10:12:29.970Z,16.20
2023-05-19T10:15:03.225Z,16.20
2023-05-19T10:17:37.676Z,16.10
2023-05-19T10:20:12.068Z,16.10
2023-05-19T10:22:50.209Z,16.10
2023-05-19T10:25:27.058Z,16.10
2023-05-19T10:28:02.042Z,16.10
2023-05-19T10:30:40.106Z,16.10
2023-05-19T10:33:15.636Z,16.10
2023-05-19T10:35:53.537Z,16.10
2023-05-19T10:38:40.515Z,16.10
2023-05-19T10:41:18.375Z,16.10
2023-05-19T10:44:05.049Z,16.10
2023-05-19T10:46:37.803Z,16.10
2023-05-19T10:49:15.640Z,16.10
2023-05-19T10:51:49.315Z,16.10
2023-05-19T10:54:24.502Z,16.10
2023-05-19T10:56:59.700Z,16.10
2023-05-19T10:59:36.246Z,16.10
2023-05-19T11:02:13.021Z,16.10
2023-05-19T11:04:52.618Z,16.10
2023-05-19T11:07:27.133Z,16.10
2023-05-19T11:10:00.148Z,16.10
2023-05-19T11:12:35.231Z,16.10
2023-05-19T11:15:08.468Z,16.10
2023-05-19T11:17:42.913Z,16.10
2023-05-19T11:20:29.562Z,16.10
2023-05-19T11:23:23.684Z,16.10
2023-05-19T11:25:57.082Z,16.10
2023-05-19T11:28:31.514Z,16.10
2023-05-19T11:31:05.982Z,16.10
2023-05-19T11:33:39.100Z,16.10
2023-05-19T11:36:16.927Z,16.10
2023-05-19T11:38:50.181Z,16.10
2023-05-19T11:41:23.636Z,16.10
2023-05-19T11:43:56.562Z,16.10
2023-05-19T11:46:29.901Z,16.10
2023-05-19T11:49:04.149Z,16.10
2023-05-19T11:51:37.773Z,16.20
2023-05-19T11:54:11.066Z,16.20
2023-05-19T11:56:47.018Z,16.20
2023-05-19T11:59:19.897Z,16.20
2023-05-19T12:01:53.204Z,16.20
2023-05-19T12:04:26.409Z,16.20
2023-05-19T12:06:59.710Z,16.20
2023-05-19T12:09:33.246Z,16.20
2023-05-19T12:12:06.246Z,16.20
2023-05-19T12:14:43.335Z,16.20
2023-05-19T12:17:16.886Z,16.20
2023-05-19T12:19:50.594Z,16.20
2023-05-19T12:22:24.055Z,16.20
2023-05-19T12:24:57.011Z,16.20
2023-05-19T12:27:30.896Z,16.20
2023-05-19T12:30:06.050Z,16.20
2023-05-19T12:32:39.175Z,16.20
2023-05-19T12:35:12.907Z,16.20
2023-05-19T12:37:50.149Z,16.20
2023-05-19T12:40:23.228Z,16.20
2023-05-19T12:42:58.247Z,16.20
2023-05-19T12:45:31.537Z,16.20
2023-05-19T12:48:06.922Z,16.20
2023-05-19T12:50:41.086Z,16.20
2023-05-19T12:53:18.009Z,16.20
2023-05-19T12:55:51.538Z,16.20
2023-05-19T12:58:25.094Z,16.20
2023-05-19T13:00:59.937Z,16.20
2023-05-19T13:03:32.823Z,16.20
2023-05-19T13:06:05.807Z,16.20
2023-05-19T13:08:38.635Z,16.20
2023-05-19T13:11:12.087Z,16.20
2023-05-19T13:13:44.933Z,16.20
2023-05-19T13:16:18.061Z,16.20
2023-05-19T13:18:51.458Z,16.20
2023-05-19T13:21:24.330Z,16.20
2023-05-19T13:23:57.286Z,16.20
2023-05-19T13:26:30.401Z,16.20
2023-05-19T13:29:03.274Z,16.20
2023-05-19T13:31:36.395Z,16.20
2023-05-19T13:34:09.329Z,16.20
2023-05-19T13:36:42.438Z,16.20
2023-05-19T13:39:15.608Z,16.20
2023-05-19T13:41:48.732Z,16.20
2023-05-19T13:44:21.574Z,16.20
2023-05-19T13:46:54.617Z,16.20
2023-05-19T13:49:27.535Z,16.20
2023-05-19T13:52:03.487Z,16.20
2023-05-19T13:54:36.452Z,16.20
2023-05-19T13:57:09.470Z,16.20
2023-05-19T13:59:57.335Z,16.20
2023-05-19T14:02:16.383Z,16.20
2023-05-19T14:04:50.215Z,16.20
2023-05-19T14:07:23.113Z,16.20
2023-05-19T14:09:56.369Z,16.20
2023-05-19T14:12:38.111Z,16.20
2023-05-19T14:15:10.542Z,16.20
2023-05-19T14:17:44.019Z,16.20
2023-05-19T14:20:17.123Z,16.20
2023-05-19T14:22:50.132Z,16.20
2023-05-19T14:25:23.069Z,16.20
2023-05-19T14:27:56.019Z,16.20
2023-05-19T14:30:28.969Z,16.10
2023-05-19T14:33:01.876Z,16.20
2023-05-19T14:35:35.997Z,16.10
2023-05-19T14:38:09.030Z,16.20
2023-05-19T14:40:44.939Z,16.10
2023-05-19T14:43:17.918Z,16.10
2023-05-19T14:45:50.920Z,16.10
2023-05-19T14:48:23.817Z,16.10
2023-05-19T14:50:57.496Z,16.10
2023-05-19T14:53:30.342Z,16.10
2023-05-19T14:56:04.590Z,16.10
2023-05-19T14:58:37.308Z,16.10
2023-05-19T15:01:10.265Z,16.10
2023-05-19T15:03:43.255Z,16.10
2023-05-19T15:06:16.118Z,16.10
2023-05-19T15:08:49.098Z,16.10
2023-05-19T15:11:22.683Z,16.10
2023-05-19T15:13:55.888Z,16.10
2023-05-19T15:16:28.944Z,16.10
2023-05-19T15:19:02.177Z,16.10
2023-05-19T15:21:35.213Z,16.20
2023-05-19T15:24:08.323Z,16.20
2023-05-19T15:26:41.512Z,16.20
2023-05-19T15:29:15.674Z,16.20
2023-05-19T15:31:48.858Z,16.20
2023-05-19T15:34:21.871Z,16.20
2023-05-19T15:36:54.797Z,16.20
2023-05-19T15:39:32.034Z,16.20
2023-05-19T15:42:05.126Z,16.20
2023-05-19T15:44:38.574Z,16.20
2023-05-19T15:47:11.488Z,16.20
2023-05-19T15:49:44.443Z,16.20
2023-05-19T15:52:17.495Z,16.20
2023-05-19T15:54:50.704Z,16.20
2023-05-19T15:57:23.892Z,16.20
2023-05-19T15:59:56.807Z,16.20
2023-05-19T16:02:29.931Z,16.30
2023-05-19T16:05:02.931Z,16.30
2023-05-19T16:07:35.761Z,16.30
2023-05-19T16:10:09.110Z,16.30
2023-05-19T16:12:42.363Z,16.20
2023-05-19T16:15:15.678Z,16.30
2023-05-19T16:17:48.680Z,16.30
2023-05-19T16:20:22.839Z,16.30
2023-05-19T16:22:55.823Z,16.30
2023-05-19T16:25:31.446Z,16.30
2023-05-19T16:28:04.122Z,16.30
2023-05-19T16:30:37.341Z,16.30
2023-05-19T16:33:11.271Z,16.30
2023-05-19T16:35:44.257Z,16.30
2023-05-19T16:38:17.312Z,16.30
2023-05-19T16:40:50.203Z,16.30
2023-05-19T16:43:23.195Z,16.30
2023-05-19T16:45:55.949Z,16.30
2023-05-19T16:48:28.769Z,16.30
2023-05-19T16:51:01.608Z,16.30
2023-05-19T16:53:34.740Z,16.30
2023-05-19T16:56:07.937Z,16.30
2023-05-19T16:58:44.847Z,16.30
2023-05-19T17:01:18.334Z,16.30
2023-05-19T17:03:51.850Z,16.30
2023-05-19T17:06:25.071Z,16.30
2023-05-19T17:08:57.965Z,16.30
2023-05-19T17:11:30.867Z,16.20
2023-05-19T17:14:06.091Z,16.20
2023-05-19T17:16:40.094Z,16.20
2023-05-19T17:19:13.200Z,16.20
2023-05-19T17:21:46.097Z,16.20
2023-05-19T17:24:18.980Z,16.30
2023-05-19T17:26:51.809Z,16.30
2023-05-19T17:29:24.752Z,16.20
2023-05-19T17:31:58.029Z,16.20
2023-05-19T17:34:31.936Z,16.20
2023-05-19T17:37:05.029Z,16.20
2023-05-19T17:39:38.336Z,16.20
2023-05-19T17:42:11.191Z,16.20
2023-05-19T17:44:44.041Z,16.20
2023-05-19T17:47:17.046Z,16.20
2023-05-19T17:49:49.874Z,16.20
2023-05-19T17:52:23.543Z,16.20
2023-05-19T17:54:56.946Z,16.20
2023-05-19T17:57:31.176Z,16.20
2023-05-19T18:00:05.427Z,16.20
2023-05-19T18:02:38.872Z,16.20
2023-05-19T18:05:12.822Z,16.20
2023-05-19T18:07:46.434Z,16.20
2023-05-19T18:10:20.537Z,16.20
2023-05-19T18:12:54.762Z,16.20
2023-05-19T18:15:27.950Z,16.20
2023-05-19T18:18:00.970Z,16.20
2023-05-19T18:20:35.211Z,16.20
2023-05-19T18:23:08.308Z,16.20
2023-05-19T18:25:43.896Z,16.20
2023-05-19T18:28:16.746Z,16.20
2023-05-19T18:30:49.765Z,16.20
2023-05-19T18:33:25.169Z,16.20
2023-05-19T18:35:56.771Z,16.20
2023-05-19T18:38:29.578Z,16.20
2023-05-19T18:41:02.591Z,16.20
2023-05-19T18:43:36.196Z,16.20
2023-05-19T18:46:09.343Z,16.20
2023-05-19T18:48:42.288Z,16.20
2023-05-19T18:51:16.321Z,16.20
2023-05-19T18:53:51.077Z,16.20
2023-05-19T18:56:31.658Z,16.20
2023-05-19T18:59:04.570Z,16.20
2023-05-19T19:01:37.502Z,16.20
2023-05-19T19:04:10.963Z,16.20
2023-05-19T19:06:44.075Z,16.20
2023-05-19T19:09:16.942Z,16.20
2023-05-19T19:11:49.955Z,16.20
2023-05-19T19:14:24.032Z,16.20
2023-05-19T19:16:56.968Z,16.20
2023-05-19T19:19:31.526Z,16.20
2023-05-19T19:22:04.533Z,16.20
2023-05-19T19:24:37.760Z,16.30
2023-05-19T19:27:10.787Z,16.30
2023-05-19T19:29:43.660Z,16.30
2023-05-19T19:32:16.567Z,16.20
2023-05-19T19:34:49.615Z,16.20
2023-05-19T19:37:22.655Z,16.20
2023-05-19T19:39:55.550Z,16.20
2023-05-19T19:42:28.569Z,16.20
2023-05-19T19:45:01.503Z,16.20
2023-05-19T19:47:34.634Z,16.20
2023-05-19T19:50:07.878Z,16.20
2023-05-19T19:52:40.687Z,16.20
2023-05-19T19:55:14.249Z,16.20
2023-05-19T19:57:52.752Z,16.20
2023-05-19T20:00:27.470Z,16.30
2023-05-19T20:05:33.779Z,16.30
2023-05-19T20:08:06.733Z,16.30
2023-05-19T20:10:39.920Z,16.30
2023-05-19T20:13:12.761Z,16.30
2023-05-19T20:15:47.360Z,16.30
2023-05-19T20:18:20.277Z,16.30
2023-05-19T20:20:53.308Z,16.30
2023-05-19T20:23:26.754Z,16.30
2023-05-19T20:26:11.926Z,16.30
2023-05-19T20:28:34.768Z,16.30
2023-05-19T20:31:07.590Z,16.30
2023-05-19T20:33:40.571Z,16.30
2023-05-19T20:36:16.668Z,16.40
2023-05-19T20:38:49.792Z,16.40
2023-05-19T20:41:25.188Z,16.40
2023-05-19T20:44:03.222Z,16.40
2023-05-19T20:46:39.045Z,16.40
2023-05-19T20:49:11.892Z,16.40
2023-05-19T20:51:44.814Z,16.50
2023-05-19T20:54:17.755Z,16.50
2023-05-19T20:56:50.812Z,16.50
2023-05-19T20:59:23.734Z,16.60
2023-05-19T21:01:56.633Z,16.60
2023-05-19T21:04:29.680Z,16.70
2023-05-19T21:07:02.784Z,16.70
2023-05-19T21:09:35.678Z,16.70
2023-05-19T21:12:08.669Z,16.70
2023-05-19T21:14:41.623Z,16.80
2023-05-19T21:17:15.044Z,16.80
2023-05-19T21:19:48.546Z,16.80
2023-05-19T21:22:22.183Z,16.90
2023-05-19T21:24:55.078Z,16.90
2023-05-19T21:27:31.164Z,16.90
2023-05-19T21:30:04.361Z,17.00
2023-05-19T21:32:37.204Z,17.00
2023-05-19T21:35:10.516Z,17.00
2023-05-19T21:37:43.629Z,17.00
2023-05-19T21:40:17.218Z,17.00
2023-05-19T21:42:50.533Z,17.00
2023-05-19T21:45:23.251Z,17.00
2023-05-19T21:47:56.399Z,17.00
2023-05-19T21:50:29.535Z,17.00
2023-05-19T21:53:03.881Z,17.00
2023-05-19T21:55:36.822Z,17.00
2023-05-19T21:58:12.649Z,17.00
2023-05-19T22:00:45.487Z,17.10
2023-05-19T22:03:18.506Z,17.10
2023-05-19T22:05:58.219Z,17.10
2023-05-19T22:08:31.160Z,17.10
2023-05-19T22:11:03.995Z,17.10
2023-05-19T22:13:38.111Z,17.10
2023-05-19T22:16:11.308Z,17.10
2023-05-19T22:18:44.589Z,17.10
2023-05-19T22:21:17.558Z,17.20
2023-05-19T22:23:50.384Z,17.20
2023-05-19T22:26:23.881Z,17.30
2023-05-19T22:28:56.690Z,17.30
2023-05-19T22:31:29.646Z,17.30
2023-05-19T22:34:02.618Z,17.30
2023-05-19T22:36:35.543Z,17.30
2023-05-19T22:39:08.595Z,17.30
2023-05-19T22:41:41.505Z,17.40
2023-05-19T22:44:15.504Z,17.50
2023-05-19T22:46:48.508Z,17.50
2023-05-19T22:49:21.371Z,17.60
2023-05-19T22:51:54.216Z,17.60
2023-05-19T22:54:26.930Z,17.60
2023-05-19T22:56:59.727Z,17.70
2023-05-19T22:59:32.645Z,17.70
2023-05-19T23:02:05.407Z,17.70
2023-05-19T23:04:38.426Z,17.70
2023-05-19T23:07:11.278Z,17.70
2023-05-19T23:09:44.047Z,17.70
2023-05-19T23:12:17.302Z,17.70
2023-05-19T23:14:50.215Z,17.70
2023-05-19T23:17:24.002Z,17.60
2023-05-19T23:19:57.212Z,17.60
2023-05-19T23:22:30.068Z,17.50
2023-05-19T23:25:04.322Z,17.50
2023-05-19T23:27:43.094Z,17.40
2023-05-19T23:30:25.956Z,17.30
2023-05-19T23:33:03.896Z,17.30
2023-05-19T23:35:36.835Z,17.20
2023-05-19T23:38:09.840Z,17.20
2023-05-19T23:40:42.742Z,17.20
2023-05-19T23:43:15.532Z,17.20
2023-05-19T23:45:48.553Z,17.20
2023-05-19T23:48:21.300Z,17.20
2023-05-19T23:50:54.250Z,17.20
2023-05-19T23:53:27.167Z,17.20
2023-05-19T23:56:00.238Z,17.20
2023-05-19T23:58:32.995Z,17.10
